sensor_id;sensor_type;location;lat;lon;timestamp;pressure;altitude;pressure_sealevel;temperature;humidity
77351;BME280;66420;50.246;14.320;2023-05-21T00:01:40;99807.91;;;14.47;78.57
77351;BME280;66420;50.246;14.320;2023-05-21T00:04:25;99811.84;;;14.38;79.58
77351;BME280;66420;50.246;14.320;2023-05-21T00:07:12;99813.78;;;14.37;78.28
77351;BME280;66420;50.246;14.320;2023-05-21T00:09:58;99813.41;;;14.30;79.07
77351;BME280;66420;50.246;14.320;2023-05-21T00:12:44;99804.84;;;14.23;78.96
77351;BME280;66420;50.246;14.320;2023-05-21T00:15:28;99802.13;;;14.14;82.03
77351;BME280;66420;50.246;14.320;2023-05-21T00:18:13;99797.09;;;14.16;81.04
77351;BME280;66420;50.246;14.320;2023-05-21T00:20:59;99797.13;;;13.99;81.63
77351;BME280;66420;50.246;14.320;2023-05-21T00:23:45;99791.44;;;14.04;80.74
77351;BME280;66420;50.246;14.320;2023-05-21T00:26:31;99788.56;;;13.92;82.28
77351;BME280;66420;50.246;14.320;2023-05-21T00:29:16;99790.97;;;13.85;81.10
77351;BME280;66420;50.246;14.320;2023-05-21T00:32:00;99788.72;;;13.87;81.51
77351;BME280;66420;50.246;14.320;2023-05-21T00:34:44;99789.34;;;13.84;81.69
77351;BME280;66420;50.246;14.320;2023-05-21T00:37:29;99794.38;;;13.82;80.88
77351;BME280;66420;50.246;14.320;2023-05-21T00:40:17;99793.25;;;13.83;79.92
77351;BME280;66420;50.246;14.320;2023-05-21T00:43:02;99795.03;;;13.88;80.44
77351;BME280;66420;50.246;14.320;2023-05-21T00:45:46;99793.72;;;13.85;80.39
77351;BME280;66420;50.246;14.320;2023-05-21T00:48:32;99790.00;;;13.81;80.78
77351;BME280;66420;50.246;14.320;2023-05-21T00:51:16;99785.97;;;13.70;80.95
77351;BME280;66420;50.246;14.320;2023-05-21T00:54:01;99792.91;;;13.59;82.35
77351;BME280;66420;50.246;14.320;2023-05-21T00:56:47;99784.19;;;13.65;80.83
77351;BME280;66420;50.246;14.320;2023-05-21T00:59:31;99788.38;;;13.63;80.99
77351;BME280;66420;50.246;14.320;2023-05-21T01:02:16;99781.44;;;13.65;79.93
77351;BME280;66420;50.246;14.320;2023-05-21T01:05:02;99782.06;;;13.62;79.68
77351;BME280;66420;50.246;14.320;2023-05-21T01:07:50;99780.94;;;13.55;80.66
77351;BME280;66420;50.246;14.320;2023-05-21T01:10:35;99780.44;;;13.53;81.03
77351;BME280;66420;50.246;14.320;2023-05-21T01:13:20;99786.91;;;13.48;81.63
77351;BME280;66420;50.246;14.320;2023-05-21T01:16:07;99783.69;;;13.46;80.89
77351;BME280;66420;50.246;14.320;2023-05-21T01:18:52;99775.75;;;13.45;80.60
77351;BME280;66420;50.246;14.320;2023-05-21T01:21:40;99783.53;;;13.43;80.17
77351;BME280;66420;50.246;14.320;2023-05-21T01:24:27;99777.53;;;13.32;82.74
77351;BME280;66420;50.246;14.320;2023-05-21T01:27:12;99773.47;;;13.29;82.12
77351;BME280;66420;50.246;14.320;2023-05-21T01:29:57;99772.03;;;13.23;81.91
77351;BME280;66420;50.246;14.320;2023-05-21T01:35:49;99774.41;;;13.16;82.18
77351;BME280;66420;50.246;14.320;2023-05-21T01:38:48;99775.53;;;13.15;83.67
77351;BME280;66420;50.246;14.320;2023-05-21T01:41:37;99776.34;;;13.16;82.22
77351;BME280;66420;50.246;14.320;2023-05-21T01:44:25;99776.31;;;13.07;82.41
77351;BME280;66420;50.246;14.320;2023-05-21T01:47:10;99773.25;;;13.00;83.32
77351;BME280;66420;50.246;14.320;2023-05-21T01:49:55;99769.69;;;13.00;82.32
77351;BME280;66420;50.246;14.320;2023-05-21T01:52:54;99770.13;;;12.93;82.73
77351;BME280;66420;50.246;14.320;2023-05-21T01:55:44;99774.03;;;12.92;83.59
77351;BME280;66420;50.246;14.320;2023-05-21T01:58:29;99766.41;;;12.89;83.58
77351;BME280;66420;50.246;14.320;2023-05-21T02:01:14;99762.69;;;12.85;84.10
77351;BME280;66420;50.246;14.320;2023-05-21T02:03:59;99766.53;;;12.84;84.32
77351;BME280;66420;50.246;14.320;2023-05-21T02:06:43;99764.13;;;12.82;83.58
77351;BME280;66420;50.246;14.320;2023-05-21T02:09:28;99768.81;;;12.82;81.83
77351;BME280;66420;50.246;14.320;2023-05-21T02:12:13;99766.22;;;12.77;83.81
77351;BME280;66420;50.246;14.320;2023-05-21T02:14:58;99760.56;;;12.73;84.35
77351;BME280;66420;50.246;14.320;2023-05-21T02:17:43;99766.88;;;12.74;83.20
77351;BME280;66420;50.246;14.320;2023-05-21T02:20:28;99757.44;;;12.66;83.06
77351;BME280;66420;50.246;14.320;2023-05-21T02:23:13;99763.28;;;12.65;83.01
77351;BME280;66420;50.246;14.320;2023-05-21T02:25:58;99766.16;;;12.60;83.12
77351;BME280;66420;50.246;14.320;2023-05-21T02:28:43;99761.78;;;12.59;83.69
77351;BME280;66420;50.246;14.320;2023-05-21T02:31:28;99754.50;;;12.54;84.19
77351;BME280;66420;50.246;14.320;2023-05-21T02:34:13;99759.00;;;12.50;84.17
77351;BME280;66420;50.246;14.320;2023-05-21T02:36:57;99754.63;;;12.49;84.77
77351;BME280;66420;50.246;14.320;2023-05-21T02:39:42;99756.25;;;12.50;84.21
77351;BME280;66420;50.246;14.320;2023-05-21T02:42:27;99755.75;;;12.48;83.39
77351;BME280;66420;50.246;14.320;2023-05-21T02:45:12;99758.31;;;12.44;84.33
77351;BME280;66420;50.246;14.320;2023-05-21T02:47:56;99757.81;;;12.42;83.75
77351;BME280;66420;50.246;14.320;2023-05-21T02:50:41;99753.63;;;12.36;84.24
77351;BME280;66420;50.246;14.320;2023-05-21T02:53:26;99743.75;;;12.35;83.28
77351;BME280;66420;50.246;14.320;2023-05-21T02:56:11;99749.19;;;12.27;84.81
77351;BME280;66420;50.246;14.320;2023-05-21T02:58:55;99752.25;;;12.25;84.65
77351;BME280;66420;50.246;14.320;2023-05-21T03:01:40;99759.69;;;12.25;85.36
77351;BME280;66420;50.246;14.320;2023-05-21T03:04:25;99754.00;;;12.21;84.80
77351;BME280;66420;50.246;14.320;2023-05-21T03:07:12;99758.69;;;12.21;84.53
77351;BME280;66420;50.246;14.320;2023-05-21T03:09:58;99760.63;;;12.20;84.67
77351;BME280;66420;50.246;14.320;2023-05-21T03:12:42;99761.31;;;12.26;84.42
77351;BME280;66420;50.246;14.320;2023-05-21T03:15:27;99768.84;;;12.20;84.60
77351;BME280;66420;50.246;14.320;2023-05-21T03:18:16;99765.16;;;12.25;85.04
77351;BME280;66420;50.246;14.320;2023-05-21T03:21:01;99772.41;;;12.21;85.57
77351;BME280;66420;50.246;14.320;2023-05-21T03:23:46;99769.03;;;12.24;85.03
77351;BME280;66420;50.246;14.320;2023-05-21T03:26:31;99764.16;;;12.21;84.93
77351;BME280;66420;50.246;14.320;2023-05-21T03:29:16;99767.09;;;12.24;84.76
77351;BME280;66420;50.246;14.320;2023-05-21T03:32:01;99768.84;;;12.20;86.38
77351;BME280;66420;50.246;14.320;2023-05-21T03:34:45;99773.34;;;12.16;86.34
77351;BME280;66420;50.246;14.320;2023-05-21T03:37:30;99767.69;;;12.13;87.58
77351;BME280;66420;50.246;14.320;2023-05-21T03:40:14;99774.41;;;12.07;86.39
77351;BME280;66420;50.246;14.320;2023-05-21T03:42:59;99767.69;;;12.13;85.85
77351;BME280;66420;50.246;14.320;2023-05-21T03:45:44;99773.34;;;12.16;85.38
77351;BME280;66420;50.246;14.320;2023-05-21T03:48:28;99765.28;;;12.20;84.79
77351;BME280;66420;50.246;14.320;2023-05-21T03:51:13;99765.81;;;12.22;84.49
77351;BME280;66420;50.246;14.320;2023-05-21T03:53:59;99760.13;;;12.18;86.03
77351;BME280;66420;50.246;14.320;2023-05-21T03:56:44;99768.72;;;12.25;84.60
77351;BME280;66420;50.246;14.320;2023-05-21T03:59:29;99771.13;;;12.18;85.75
77351;BME280;66420;50.246;14.320;2023-05-21T04:02:13;99777.72;;;12.17;84.89
77351;BME280;66420;50.246;14.320;2023-05-21T04:04:58;99772.88;;;12.14;85.45
77351;BME280;66420;50.246;14.320;2023-05-21T04:07:42;99769.25;;;12.05;86.55
77351;BME280;66420;50.246;14.320;2023-05-21T04:10:29;99776.84;;;12.08;85.36
77351;BME280;66420;50.246;14.320;2023-05-21T04:13:14;99771.72;;;12.15;85.51
77351;BME280;66420;50.246;14.320;2023-05-21T04:15:58;99773.72;;;12.23;85.53
77351;BME280;66420;50.246;14.320;2023-05-21T04:18:44;99776.31;;;12.28;85.27
77351;BME280;66420;50.246;14.320;2023-05-21T04:21:30;99770.53;;;12.30;85.43
77351;BME280;66420;50.246;14.320;2023-05-21T04:24:15;99774.25;;;12.34;85.51
77351;BME280;66420;50.246;14.320;2023-05-21T04:27:00;99777.81;;;12.34;85.30
77351;BME280;66420;50.246;14.320;2023-05-21T04:29:45;99772.81;;;12.36;86.32
77351;BME280;66420;50.246;14.320;2023-05-21T04:32:32;99772.19;;;12.39;85.90
77351;BME280;66420;50.246;14.320;2023-05-21T04:35:18;99777.41;;;12.50;85.99
77351;BME280;66420;50.246;14.320;2023-05-21T04:38:03;99771.28;;;12.53;85.52
77351;BME280;66420;50.246;14.320;2023-05-21T04:40:49;99772.94;;;12.62;85.25
77351;BME280;66420;50.246;14.320;2023-05-21T04:43:34;99770.72;;;12.73;83.73
77351;BME280;66420;50.246;14.320;2023-05-21T04:46:22;99766.41;;;12.89;83.96
77351;BME280;66420;50.246;14.320;2023-05-21T04:49:10;99775.34;;;13.03;84.58
77351;BME280;66420;50.246;14.320;2023-05-21T04:51:54;99774.75;;;13.15;83.84
77351;BME280;66420;50.246;14.320;2023-05-21T04:54:40;99770.88;;;13.24;84.29
77351;BME280;66420;50.246;14.320;2023-05-21T04:57:26;99776.06;;;13.35;83.84
77351;BME280;66420;50.246;14.320;2023-05-21T05:00:12;99782.72;;;13.51;83.14
77351;BME280;66420;50.246;14.320;2023-05-21T05:02:56;99781.09;;;13.58;84.09
77351;BME280;66420;50.246;14.320;2023-05-21T05:05:41;99771.41;;;13.69;83.70
77351;BME280;66420;50.246;14.320;2023-05-21T05:08:25;99768.00;;;13.81;83.96
77351;BME280;66420;50.246;14.320;2023-05-21T05:11:10;99770.09;;;13.93;83.32
77351;BME280;66420;50.246;14.320;2023-05-21T05:13:55;99771.53;;;14.07;83.65
77351;BME280;66420;50.246;14.320;2023-05-21T05:16:40;99779.28;;;14.23;83.46
77351;BME280;66420;50.246;14.320;2023-05-21T05:19:26;99765.47;;;14.31;83.20
77351;BME280;66420;50.246;14.320;2023-05-21T05:22:11;99762.09;;;14.43;83.64
77351;BME280;66420;50.246;14.320;2023-05-21T05:24:56;99762.03;;;14.60;83.16
77351;BME280;66420;50.246;14.320;2023-05-21T05:27:40;99769.41;;;14.77;85.05
77351;BME280;66420;50.246;14.320;2023-05-21T05:30:25;99767.34;;;14.94;83.47
77351;BME280;66420;50.246;14.320;2023-05-21T05:33:10;99759.84;;;15.03;84.87
77351;BME280;66420;50.246;14.320;2023-05-21T05:35:55;99756.00;;;15.25;84.66
77351;BME280;66420;50.246;14.320;2023-05-21T05:38:40;99762.34;;;15.46;84.00
77351;BME280;66420;50.246;14.320;2023-05-21T05:41:25;99762.84;;;15.69;84.03
77351;BME280;66420;50.246;14.320;2023-05-21T05:44:10;99761.81;;;15.74;83.60
77351;BME280;66420;50.246;14.320;2023-05-21T05:46:55;99764.28;;;15.87;82.48
77351;BME280;66420;50.246;14.320;2023-05-21T05:49:40;99756.28;;;15.94;82.06
77351;BME280;66420;50.246;14.320;2023-05-21T05:52:24;99748.97;;;16.11;81.54
77351;BME280;66420;50.246;14.320;2023-05-21T05:55:09;99756.34;;;16.19;80.72
77351;BME280;66420;50.246;14.320;2023-05-21T05:57:55;99758.69;;;16.41;80.58
77351;BME280;66420;50.246;14.320;2023-05-21T06:00:40;99749.97;;;16.51;80.45
77351;BME280;66420;50.246;14.320;2023-05-21T06:03:26;99754.59;;;16.59;79.56
77351;BME280;66420;50.246;14.320;2023-05-21T06:06:12;99745.31;;;16.76;78.99
77351;BME280;66420;50.246;14.320;2023-05-21T06:08:57;99739.06;;;16.91;78.39
77351;BME280;66420;50.246;14.320;2023-05-21T06:11:41;99741.03;;;17.03;77.49
77351;BME280;66420;50.246;14.320;2023-05-21T06:14:26;99746.56;;;17.15;76.53
77351;BME280;66420;50.246;14.320;2023-05-21T06:17:11;99741.69;;;17.24;77.18
77351;BME280;66420;50.246;14.320;2023-05-21T06:19:56;99742.59;;;17.28;76.76
77351;BME280;66420;50.246;14.320;2023-05-21T06:22:41;99741.22;;;17.34;75.32
77351;BME280;66420;50.246;14.320;2023-05-21T06:25:25;99733.63;;;17.31;75.56
77351;BME280;66420;50.246;14.320;2023-05-21T06:28:10;99739.84;;;17.40;75.56
77351;BME280;66420;50.246;14.320;2023-05-21T06:30:55;99742.22;;;17.42;74.54
77351;BME280;66420;50.246;14.320;2023-05-21T06:33:40;99737.63;;;17.46;76.19
77351;BME280;66420;50.246;14.320;2023-05-21T06:36:26;99742.22;;;17.54;74.43
77351;BME280;66420;50.246;14.320;2023-05-21T06:39:13;99744.38;;;17.73;74.52
77351;BME280;66420;50.246;14.320;2023-05-21T06:41:57;99747.41;;;17.67;73.97
77351;BME280;66420;50.246;14.320;2023-05-21T06:44:43;99742.06;;;17.75;73.87
77351;BME280;66420;50.246;14.320;2023-05-21T06:47:28;99744.22;;;17.81;75.46
77351;BME280;66420;50.246;14.320;2023-05-21T06:50:13;99743.13;;;17.98;74.13
77351;BME280;66420;50.246;14.320;2023-05-21T06:52:57;99746.28;;;18.12;73.72
77351;BME280;66420;50.246;14.320;2023-05-21T06:55:42;99737.88;;;18.24;73.03
77351;BME280;66420;50.246;14.320;2023-05-21T06:58:29;99741.13;;;18.26;74.75
77351;BME280;66420;50.246;14.320;2023-05-21T07:01:14;99740.88;;;18.47;72.98
77351;BME280;66420;50.246;14.320;2023-05-21T07:03:59;99735.69;;;18.45;72.14
77351;BME280;66420;50.246;14.320;2023-05-21T07:06:44;99735.44;;;18.66;72.53
77351;BME280;66420;50.246;14.320;2023-05-21T07:09:29;99734.91;;;18.76;71.49
77351;BME280;66420;50.246;14.320;2023-05-21T07:12:14;99736.06;;;18.91;71.37
77351;BME280;66420;50.246;14.320;2023-05-21T07:14:59;99735.06;;;19.15;71.83
77351;BME280;66420;50.246;14.320;2023-05-21T07:17:44;99731.06;;;19.31;71.22
77351;BME280;66420;50.246;14.320;2023-05-21T07:20:29;99735.06;;;19.50;71.63
77351;BME280;66420;50.246;14.320;2023-05-21T07:23:14;99733.91;;;19.70;69.52
77351;BME280;66420;50.246;14.320;2023-05-21T07:25:58;99730.97;;;19.82;69.92
77351;BME280;66420;50.246;14.320;2023-05-21T07:28:43;99726.56;;;20.00;68.73
77351;BME280;66420;50.246;14.320;2023-05-21T07:31:29;99735.94;;;20.11;67.06
77351;BME280;66420;50.246;14.320;2023-05-21T07:34:14;99724.88;;;20.15;66.25
77351;BME280;66420;50.246;14.320;2023-05-21T07:36:59;99721.28;;;20.14;66.25
77351;BME280;66420;50.246;14.320;2023-05-21T07:39:44;99729.19;;;20.12;65.86
77351;BME280;66420;50.246;14.320;2023-05-21T07:42:29;99728.06;;;20.36;66.08
77351;BME280;66420;50.246;14.320;2023-05-21T07:45:14;99725.53;;;20.50;64.89
77351;BME280;66420;50.246;14.320;2023-05-21T07:47:59;99715.53;;;20.46;64.35
77351;BME280;66420;50.246;14.320;2023-05-21T07:50:44;99715.16;;;20.70;65.61
77351;BME280;66420;50.246;14.320;2023-05-21T07:53:31;99722.78;;;20.99;65.60
77351;BME280;66420;50.246;14.320;2023-05-21T07:56:17;99720.09;;;20.80;65.03
77351;BME280;66420;50.246;14.320;2023-05-21T07:59:01;99724.66;;;20.92;65.07
77351;BME280;66420;50.246;14.320;2023-05-21T08:01:46;99726.44;;;21.03;65.29
77351;BME280;66420;50.246;14.320;2023-05-21T08:04:31;99722.13;;;21.09;65.08
77351;BME280;66420;50.246;14.320;2023-05-21T08:07:16;99723.22;;;21.28;62.46
77351;BME280;66420;50.246;14.320;2023-05-21T08:10:03;99713.91;;;21.43;62.15
77351;BME280;66420;50.246;14.320;2023-05-21T08:12:48;99718.16;;;21.63;60.71
77351;BME280;66420;50.246;14.320;2023-05-21T08:15:32;99719.69;;;21.90;60.52
77351;BME280;66420;50.246;14.320;2023-05-21T08:18:17;99709.16;;;21.77;61.33
77351;BME280;66420;50.246;14.320;2023-05-21T08:21:02;99718.47;;;21.91;59.16
77351;BME280;66420;50.246;14.320;2023-05-21T08:23:48;99714.50;;;21.92;59.78
77351;BME280;66420;50.246;14.320;2023-05-21T08:26:32;99714.69;;;22.03;60.18
77351;BME280;66420;50.246;14.320;2023-05-21T08:29:17;99714.78;;;22.14;58.63
77351;BME280;66420;50.246;14.320;2023-05-21T08:32:01;99708.41;;;22.13;59.63
77351;BME280;66420;50.246;14.320;2023-05-21T08:34:46;99713.47;;;22.41;58.86
77351;BME280;66420;50.246;14.320;2023-05-21T08:37:30;99711.19;;;22.53;58.44
77351;BME280;66420;50.246;14.320;2023-05-21T08:40:16;99709.06;;;22.80;57.68
77351;BME280;66420;50.246;14.320;2023-05-21T08:43:00;99702.13;;;22.64;59.65
77351;BME280;66420;50.246;14.320;2023-05-21T08:45:53;99706.72;;;22.86;57.89
77351;BME280;66420;50.246;14.320;2023-05-21T08:48:39;99699.25;;;23.01;56.22
77351;BME280;66420;50.246;14.320;2023-05-21T08:51:27;99706.78;;;22.96;56.92
77351;BME280;66420;50.246;14.320;2023-05-21T08:54:18;99705.91;;;22.85;56.99
77351;BME280;66420;50.246;14.320;2023-05-21T08:57:03;99695.66;;;23.04;57.04
77351;BME280;66420;50.246;14.320;2023-05-21T08:59:51;99691.00;;;23.25;57.88
77351;BME280;66420;50.246;14.320;2023-05-21T09:02:49;99699.47;;;23.43;55.69
77351;BME280;66420;50.246;14.320;2023-05-21T09:05:58;99692.06;;;23.68;56.16
77351;BME280;66420;50.246;14.320;2023-05-21T09:08:51;99690.47;;;23.71;54.26
77351;BME280;66420;50.246;14.320;2023-05-21T09:11:41;99686.78;;;23.49;54.45
77351;BME280;66420;50.246;14.320;2023-05-21T09:14:28;99696.91;;;23.85;54.73
77351;BME280;66420;50.246;14.320;2023-05-21T09:17:14;99690.94;;;23.87;54.22
77351;BME280;66420;50.246;14.320;2023-05-21T09:20:26;99695.38;;;24.13;54.70
77351;BME280;66420;50.246;14.320;2023-05-21T09:23:21;99689.69;;;23.81;53.04
77351;BME280;66420;50.246;14.320;2023-05-21T09:26:11;99696.94;;;24.00;54.06
77351;BME280;66420;50.246;14.320;2023-05-21T09:28:59;99695.44;;;24.34;55.21
77351;BME280;66420;50.246;14.320;2023-05-21T09:34:38;99691.06;;;24.33;51.74
77351;BME280;66420;50.246;14.320;2023-05-21T09:37:23;99685.84;;;24.28;52.02
77351;BME280;66420;50.246;14.320;2023-05-21T09:40:18;99689.06;;;24.72;52.09
77351;BME280;66420;50.246;14.320;2023-05-21T10:01:25;99669.78;;;25.38;48.39
77351;BME280;66420;50.246;14.320;2023-05-21T10:04:10;99678.59;;;25.37;49.94
77351;BME280;66420;50.246;14.320;2023-05-21T10:06:57;99666.56;;;25.43;48.90
77351;BME280;66420;50.246;14.320;2023-05-21T10:09:45;99668.16;;;25.48;47.47
77351;BME280;66420;50.246;14.320;2023-05-21T10:12:32;99664.41;;;25.83;47.09
77351;BME280;66420;50.246;14.320;2023-05-21T10:15:22;99669.53;;;25.95;48.68
77351;BME280;66420;50.246;14.320;2023-05-21T10:18:09;99655.56;;;25.88;47.32
77351;BME280;66420;50.246;14.320;2023-05-21T10:20:55;99663.22;;;25.84;48.38
77351;BME280;66420;50.246;14.320;2023-05-21T10:23:41;99652.06;;;25.70;45.62
77351;BME280;66420;50.246;14.320;2023-05-21T10:26:27;99641.69;;;25.59;45.88
77351;BME280;66420;50.246;14.320;2023-05-21T10:29:14;99643.97;;;25.82;47.07
77351;BME280;66420;50.246;14.320;2023-05-21T10:32:00;99635.16;;;25.84;47.51
77351;BME280;66420;50.246;14.320;2023-05-21T10:34:46;99639.13;;;25.90;45.17
77351;BME280;66420;50.246;14.320;2023-05-21T10:37:31;99634.22;;;26.04;45.30
77351;BME280;66420;50.246;14.320;2023-05-21T10:40:16;99636.19;;;26.11;45.67
77351;BME280;66420;50.246;14.320;2023-05-21T10:47:21;99636.53;;;26.20;45.53
77351;BME280;66420;50.246;14.320;2023-05-21T10:52:49;99624.53;;;26.13;45.23
77351;BME280;66420;50.246;14.320;2023-05-21T11:01:37;99624.25;;;26.55;45.52
77351;BME280;66420;50.246;14.320;2023-05-21T11:04:30;99615.50;;;26.46;42.79
77351;BME280;66420;50.246;14.320;2023-05-21T11:11:00;99618.63;;;26.55;43.16
77351;BME280;66420;50.246;14.320;2023-05-21T11:14:34;99619.19;;;26.39;43.99
77351;BME280;66420;50.246;14.320;2023-05-21T11:17:42;99622.91;;;26.26;44.33
77351;BME280;66420;50.246;14.320;2023-05-21T11:20:53;99610.91;;;26.63;44.14
77351;BME280;66420;50.246;14.320;2023-05-21T11:24:00;99603.28;;;26.67;43.53
77351;BME280;66420;50.246;14.320;2023-05-21T11:27:09;99606.53;;;26.62;44.07
77351;BME280;66420;50.246;14.320;2023-05-21T11:30:15;99608.13;;;26.63;43.22
77351;BME280;66420;50.246;14.320;2023-05-21T11:33:20;99597.81;;;26.53;43.94
77351;BME280;66420;50.246;14.320;2023-05-21T11:36:25;99598.84;;;26.25;44.93
77351;BME280;66420;50.246;14.320;2023-05-21T11:39:16;99597.00;;;26.00;44.00
77351;BME280;66420;50.246;14.320;2023-05-21T11:42:05;99600.72;;;25.83;45.30
77351;BME280;66420;50.246;14.320;2023-05-21T11:44:49;99604.50;;;26.21;45.25
77351;BME280;66420;50.246;14.320;2023-05-21T11:47:34;99602.06;;;26.68;45.16
77351;BME280;66420;50.246;14.320;2023-05-21T11:50:19;99606.31;;;26.83;43.53
77351;BME280;66420;50.246;14.320;2023-05-21T11:53:03;99608.97;;;26.60;43.61
77351;BME280;66420;50.246;14.320;2023-05-21T11:55:48;99595.59;;;26.74;46.01
77351;BME280;66420;50.246;14.320;2023-05-21T11:58:33;99602.44;;;26.70;43.39
77351;BME280;66420;50.246;14.320;2023-05-21T12:01:22;99598.59;;;26.53;43.43
77351;BME280;66420;50.246;14.320;2023-05-21T12:04:07;99596.22;;;26.52;43.61
77351;BME280;66420;50.246;14.320;2023-05-21T12:06:51;99593.09;;;26.42;43.13
77351;BME280;66420;50.246;14.320;2023-05-21T12:12:26;99587.06;;;26.85;42.95
77351;BME280;66420;50.246;14.320;2023-05-21T12:15:11;99588.25;;;26.84;45.06
77351;BME280;66420;50.246;14.320;2023-05-21T12:17:57;99590.41;;;26.69;43.46
77351;BME280;66420;50.246;14.320;2023-05-21T12:23:26;99583.78;;;26.53;43.40
77351;BME280;66420;50.246;14.320;2023-05-21T12:26:25;99565.63;;;26.61;43.19
77351;BME280;66420;50.246;14.320;2023-05-21T12:29:54;99576.34;;;26.73;41.82
77351;BME280;66420;50.246;14.320;2023-05-21T12:36:48;99579.59;;;26.71;43.22
77351;BME280;66420;50.246;14.320;2023-05-21T12:39:42;99573.41;;;26.83;42.73
77351;BME280;66420;50.246;14.320;2023-05-21T12:42:29;99574.91;;;26.58;41.97
77351;BME280;66420;50.246;14.320;2023-05-21T12:45:15;99574.72;;;26.34;43.31
77351;BME280;66420;50.246;14.320;2023-05-21T12:48:01;99577.22;;;26.18;43.35
77351;BME280;66420;50.246;14.320;2023-05-21T12:50:46;99573.38;;;25.98;43.48
77351;BME280;66420;50.246;14.320;2023-05-21T12:53:37;99560.22;;;25.88;43.74
77351;BME280;66420;50.246;14.320;2023-05-21T12:56:22;99557.28;;;26.06;43.03
77351;BME280;66420;50.246;14.320;2023-05-21T12:59:11;99559.00;;;26.40;43.00
77351;BME280;66420;50.246;14.320;2023-05-21T13:01:57;99554.69;;;26.32;41.99
77351;BME280;66420;50.246;14.320;2023-05-21T13:04:43;99554.63;;;26.36;41.98
77351;BME280;66420;50.246;14.320;2023-05-21T13:10:10;99552.00;;;26.15;42.82
77351;BME280;66420;50.246;14.320;2023-05-21T13:12:55;99557.13;;;25.72;42.67
77351;BME280;66420;50.246;14.320;2023-05-21T13:15:40;99543.97;;;25.65;44.69
77351;BME280;66420;50.246;14.320;2023-05-21T13:18:25;99550.38;;;25.62;43.42
77351;BME280;66420;50.246;14.320;2023-05-21T13:21:09;99551.59;;;25.57;45.80
77351;BME280;66420;50.246;14.320;2023-05-21T13:23:54;99553.59;;;25.53;45.80
77351;BME280;66420;50.246;14.320;2023-05-21T13:26:38;99552.44;;;25.47;44.11
77351;BME280;66420;50.246;14.320;2023-05-21T13:29:23;99548.06;;;25.46;44.42
77351;BME280;66420;50.246;14.320;2023-05-21T13:32:08;99548.47;;;25.41;44.79
77351;BME280;66420;50.246;14.320;2023-05-21T13:34:52;99544.13;;;25.33;44.82
77351;BME280;66420;50.246;14.320;2023-05-21T13:37:38;99541.63;;;25.49;44.68
77351;BME280;66420;50.246;14.320;2023-05-21T13:40:23;99538.00;;;25.56;46.84
77351;BME280;66420;50.246;14.320;2023-05-21T13:43:08;99529.25;;;25.43;44.63
77351;BME280;66420;50.246;14.320;2023-05-21T13:45:53;99525.94;;;25.63;47.03
77351;BME280;66420;50.246;14.320;2023-05-21T13:48:38;99517.81;;;25.82;45.60
77351;BME280;66420;50.246;14.320;2023-05-21T13:51:23;99521.91;;;25.71;43.94
77351;BME280;66420;50.246;14.320;2023-05-21T13:54:08;99519.59;;;25.55;44.70
77351;BME280;66420;50.246;14.320;2023-05-21T13:56:53;99519.97;;;25.53;44.14
77351;BME280;66420;50.246;14.320;2023-05-21T13:59:39;99524.03;;;25.45;45.39
77351;BME280;66420;50.246;14.320;2023-05-21T14:02:24;99525.94;;;25.63;45.76
77351;BME280;66420;50.246;14.320;2023-05-21T14:05:09;99520.78;;;25.61;44.03
77351;BME280;66420;50.246;14.320;2023-05-21T14:07:54;99530.34;;;25.64;44.56
77351;BME280;66420;50.246;14.320;2023-05-21T14:10:40;99516.00;;;25.54;43.07
77351;BME280;66420;50.246;14.320;2023-05-21T14:13:24;99522.78;;;25.53;42.89
77351;BME280;66420;50.246;14.320;2023-05-21T14:16:09;99519.16;;;25.53;44.23
77351;BME280;66420;50.246;14.320;2023-05-21T14:18:57;99511.66;;;25.39;43.17
77351;BME280;66420;50.246;14.320;2023-05-21T14:21:42;99514.41;;;25.46;44.27
77351;BME280;66420;50.246;14.320;2023-05-21T14:24:27;99514.84;;;25.41;42.01
77351;BME280;66420;50.246;14.320;2023-05-21T14:27:12;99515.19;;;25.50;41.59
77351;BME280;66420;50.246;14.320;2023-05-21T14:29:57;99513.19;;;25.54;41.86
77351;BME280;66420;50.246;14.320;2023-05-21T14:32:42;99515.16;;;25.57;42.24
77351;BME280;66420;50.246;14.320;2023-05-21T14:35:26;99517.50;;;25.70;42.69
77351;BME280;66420;50.246;14.320;2023-05-21T14:38:11;99513.03;;;25.76;41.75
77351;BME280;66420;50.246;14.320;2023-05-21T14:40:55;99515.00;;;25.82;42.62
77351;BME280;66420;50.246;14.320;2023-05-21T14:43:41;99506.63;;;25.79;40.64
77351;BME280;66420;50.246;14.320;2023-05-21T14:46:25;99507.00;;;25.81;41.40
77351;BME280;66420;50.246;14.320;2023-05-21T14:49:10;99501.34;;;25.88;42.33
77351;BME280;66420;50.246;14.320;2023-05-21T14:51:55;99500.56;;;25.84;42.23
77351;BME280;66420;50.246;14.320;2023-05-21T14:54:40;99504.94;;;25.85;42.68
77351;BME280;66420;50.246;14.320;2023-05-21T14:57:25;99508.81;;;26.05;40.20
77351;BME280;66420;50.246;14.320;2023-05-21T15:00:10;99501.53;;;26.11;38.88
77351;BME280;66420;50.246;14.320;2023-05-21T15:02:56;99497.94;;;26.11;39.78
77351;BME280;66420;50.246;14.320;2023-05-21T15:05:40;99495.97;;;26.08;38.95
77351;BME280;66420;50.246;14.320;2023-05-21T15:08:25;99506.00;;;26.05;39.02
77351;BME280;66420;50.246;14.320;2023-05-21T15:11:10;99510.00;;;26.04;37.80
77351;BME280;66420;50.246;14.320;2023-05-21T15:13:55;99495.50;;;26.13;36.45
77351;BME280;66420;50.246;14.320;2023-05-21T15:16:40;99493.13;;;26.11;36.48
77351;BME280;66420;50.246;14.320;2023-05-21T15:19:24;99490.69;;;26.13;35.71
77351;BME280;66420;50.246;14.320;2023-05-21T15:22:09;99486.78;;;26.03;35.91
77351;BME280;66420;50.246;14.320;2023-05-21T15:24:54;99486.00;;;26.03;36.13